Jeppesen Maersk — OWTW2 — position and weather

sailwx.info

Track history (hours):
 
Tides and Currents Weather Stations Pressure Air Temp Water Temp Dewpoint Dewpoint Depression Visibility Wind Speed Wind Dir Waves Ship Positions

Jeppesen Maersk

Last reported at 2016-Aug-26 00:00 UTC. Time now 2016-Aug-26 17:24 UTC.
Position S 21°42' E 150°36'.

Type: Ship (hazmat cat A). MMSI: 219953000.

Wind from 130 at 18 knots

Barometer 1016.6 mb
Air temperature 19.8 ° C
Visibility: greater than 10.8 NM
Dewpoint 15.8 ° C

Date/timePositionNaut miles runAvg speedWind from/ knotsBaromVisibWave heightAir tempDewpointWater temp
2016-Aug-26 00:00S 21°42' E 150°36'56115.6 130 / 181016.610.8 19.815.8
2016-Aug-24 12:00S 26°48' E 159°12'   010 / 341008.310.8 21.420.6
2016-Aug-21 15:10S 36°10' E 174°58'6 9.5
2016-Aug-21 14:33S 36°16' E 174°59'9 9.3
2016-Aug-21 13:33S 36°25' E 174°59'9 9.3
2016-Aug-21 12:33S 36°35' E 174°59'9 9.3
2016-Aug-21 11:33S 36°42' E 174°52'9 8.8
2016-Aug-21 10:33S 36°50' E 174°47'0 0.5
2016-Aug-21 09:33S 36°51' E 174°47'0 0.0
2016-Aug-21 08:33S 36°51' E 174°47'0 0.0
2016-Aug-21 07:19S 36°51' E 174°47'0 0.0
2016-Aug-21 06:33S 36°51' E 174°47'0 0.0
2016-Aug-21 05:33S 36°51' E 174°47'0 0.0
2016-Aug-21 04:27S 36°51' E 174°47'0 0.0
2016-Aug-21 03:33S 36°51' E 174°47'0 0.0
2016-Aug-21 02:33S 36°51' E 174°47'0 0.0
2016-Aug-21 01:33S 36°51' E 174°47'0 0.0
2016-Aug-20 23:27S 36°51' E 174°47'0 0.0
2016-Aug-20 22:33S 36°51' E 174°47'3 2.6
2016-Aug-20 21:33S 36°49' E 174°50'9 9.4
2016-Aug-20 20:33S 36°41' E 174°54'8 7.9
2016-Aug-20 19:33S 36°35' E 175°01'8 8.3
2016-Aug-20 18:33S 36°30' E 175°09'9 8.6
2016-Aug-20 17:33S 36°24' E 175°17'19110.9
2016-Aug-20 00:00S 38°18' E 178°30'   120 / 171029.310.8 12.1 7.8
Track history (hours):
 
Tides and Currents Weather Stations Pressure Air Temp Water Temp Dewpoint Dewpoint Depression Visibility Wind Speed Wind Dir Waves Ship Positions

Jeppesen Maersk

Last reported at 2016-Aug-26 00:00 UTC. Time now 2016-Aug-26 17:24 UTC.
Position S 21°42' E 150°36'.

Type: Ship (hazmat cat A). MMSI: 219953000.

Wind from 130 at 18 knots

Barometer 1016.6 mb
Air temperature 19.8 ° C
Visibility: greater than 10.8 NM
Dewpoint 15.8 ° C

Date/timePositionNaut miles runAvg speedWind from/ knotsBaromVisibWave heightAir tempDewpointWater temp
2016-Aug-26 00:00S 21°42' E 150°36'56115.6 130 / 181016.610.8 19.815.8
2016-Aug-24 12:00S 26°48' E 159°12'   010 / 341008.310.8 21.420.6
2016-Aug-21 15:10S 36°10' E 174°58'6 9.5
2016-Aug-21 14:33S 36°16' E 174°59'9 9.3
2016-Aug-21 13:33S 36°25' E 174°59'9 9.3
2016-Aug-21 12:33S 36°35' E 174°59'9 9.3
2016-Aug-21 11:33S 36°42' E 174°52'9 8.8
2016-Aug-21 10:33S 36°50' E 174°47'0 0.5
2016-Aug-21 09:33S 36°51' E 174°47'0 0.0
2016-Aug-21 08:33S 36°51' E 174°47'0 0.0
2016-Aug-21 07:19S 36°51' E 174°47'0 0.0
2016-Aug-21 06:33S 36°51' E 174°47'0 0.0
2016-Aug-21 05:33S 36°51' E 174°47'0 0.0
2016-Aug-21 04:27S 36°51' E 174°47'0 0.0
2016-Aug-21 03:33S 36°51' E 174°47'0 0.0
2016-Aug-21 02:33S 36°51' E 174°47'0 0.0
2016-Aug-21 01:33S 36°51' E 174°47'0 0.0
2016-Aug-20 23:27S 36°51' E 174°47'0 0.0
2016-Aug-20 22:33S 36°51' E 174°47'3 2.6
2016-Aug-20 21:33S 36°49' E 174°50'9 9.4
2016-Aug-20 20:33S 36°41' E 174°54'8 7.9
2016-Aug-20 19:33S 36°35' E 175°01'8 8.3
2016-Aug-20 18:33S 36°30' E 175°09'9 8.6
2016-Aug-20 17:33S 36°24' E 175°17'19110.9
2016-Aug-20 00:00S 38°18' E 178°30'   120 / 171029.310.8 12.1 7.8

Dump ship's entire track history